sensor_id;sensor_type;location;lat;lon;timestamp;temperature;humidity
1686;DHT22;840;47.980;7.830;2023-05-10T00:00:56;15.00;99.90
1686;DHT22;840;47.980;7.830;2023-05-10T00:03:25;15.00;99.90
1686;DHT22;840;47.980;7.830;2023-05-10T00:05:52;15.00;99.90
1686;DHT22;840;47.980;7.830;2023-05-10T00:08:19;14.90;99.90
1686;DHT22;840;47.980;7.830;2023-05-10T00:10:46;14.90;99.90
1686;DHT22;840;47.980;7.830;2023-05-10T00:13:13;14.90;99.90
1686;DHT22;840;47.980;7.830;2023-05-10T00:15:40;14.90;99.90
1686;DHT22;840;47.980;7.830;2023-05-10T00:18:07;14.80;99.90
1686;DHT22;840;47.980;7.830;2023-05-10T00:20:35;14.90;99.90
1686;DHT22;840;47.980;7.830;2023-05-10T00:23:02;14.90;99.90
1686;DHT22;840;47.980;7.830;2023-05-10T00:25:30;14.80;99.90
1686;DHT22;840;47.980;7.830;2023-05-10T00:27:57;14.80;99.90
1686;DHT22;840;47.980;7.830;2023-05-10T00:30:24;14.80;99.90
1686;DHT22;840;47.980;7.830;2023-05-10T00:32:50;14.80;99.90
1686;DHT22;840;47.980;7.830;2023-05-10T00:35:18;14.80;99.90
1686;DHT22;840;47.980;7.830;2023-05-10T00:37:46;14.70;99.90
1686;DHT22;840;47.980;7.830;2023-05-10T00:40:13;14.70;99.90
1686;DHT22;840;47.980;7.830;2023-05-10T00:42:40;14.70;99.90
1686;DHT22;840;47.980;7.830;2023-05-10T00:45:08;14.70;99.90
1686;DHT22;840;47.980;7.830;2023-05-10T00:47:35;14.70;99.90
1686;DHT22;840;47.980;7.830;2023-05-10T00:50:02;14.70;99.90
1686;DHT22;840;47.980;7.830;2023-05-10T00:52:30;14.70;99.90
1686;DHT22;840;47.980;7.830;2023-05-10T00:54:58;14.70;99.90
1686;DHT22;840;47.980;7.830;2023-05-10T00:57:25;14.70;99.90
1686;DHT22;840;47.980;7.830;2023-05-10T00:59:53;14.70;99.90
1686;DHT22;840;47.980;7.830;2023-05-10T01:02:20;14.70;99.90
1686;DHT22;840;47.980;7.830;2023-05-10T01:04:49;14.70;99.90
1686;DHT22;840;47.980;7.830;2023-05-10T01:07:15;14.70;99.90
1686;DHT22;840;47.980;7.830;2023-05-10T01:09:43;14.70;99.90
1686;DHT22;840;47.980;7.830;2023-05-10T01:12:12;14.70;99.90
1686;DHT22;840;47.980;7.830;2023-05-10T01:14:39;14.70;99.90
1686;DHT22;840;47.980;7.830;2023-05-10T01:17:07;14.70;99.90
1686;DHT22;840;47.980;7.830;2023-05-10T01:19:35;14.70;99.90
1686;DHT22;840;47.980;7.830;2023-05-10T01:22:12;14.70;99.90
1686;DHT22;840;47.980;7.830;2023-05-10T01:28:17;14.70;99.90
1686;DHT22;840;47.980;7.830;2023-05-10T01:31:06;14.70;99.90
1686;DHT22;840;47.980;7.830;2023-05-10T01:33:39;14.70;99.90
1686;DHT22;840;47.980;7.830;2023-05-10T01:36:13;14.70;99.90
1686;DHT22;840;47.980;7.830;2023-05-10T01:38:47;14.60;99.90
1686;DHT22;840;47.980;7.830;2023-05-10T01:41:20;14.60;99.90
1686;DHT22;840;47.980;7.830;2023-05-10T01:43:55;14.60;99.90
1686;DHT22;840;47.980;7.830;2023-05-10T01:46:28;14.60;99.90
1686;DHT22;840;47.980;7.830;2023-05-10T01:49:00;14.60;99.90
1686;DHT22;840;47.980;7.830;2023-05-10T01:51:35;14.60;99.90
1686;DHT22;840;47.980;7.830;2023-05-10T01:54:05;14.60;99.90
1686;DHT22;840;47.980;7.830;2023-05-10T01:56:33;14.60;99.90
1686;DHT22;840;47.980;7.830;2023-05-10T01:59:06;14.60;99.90
1686;DHT22;840;47.980;7.830;2023-05-10T02:01:36;14.60;99.90
1686;DHT22;840;47.980;7.830;2023-05-10T02:04:06;14.60;99.90
1686;DHT22;840;47.980;7.830;2023-05-10T02:06:34;14.60;99.90
1686;DHT22;840;47.980;7.830;2023-05-10T02:09:02;14.60;99.90
1686;DHT22;840;47.980;7.830;2023-05-10T02:11:30;14.60;99.90
1686;DHT22;840;47.980;7.830;2023-05-10T02:13:58;14.60;99.90
1686;DHT22;840;47.980;7.830;2023-05-10T02:16:27;14.60;99.90
1686;DHT22;840;47.980;7.830;2023-05-10T02:18:57;14.60;99.90
1686;DHT22;840;47.980;7.830;2023-05-10T02:21:27;14.70;99.90
1686;DHT22;840;47.980;7.830;2023-05-10T02:23:55;14.60;99.90
1686;DHT22;840;47.980;7.830;2023-05-10T02:26:24;14.60;99.90
1686;DHT22;840;47.980;7.830;2023-05-10T02:28:52;14.60;99.90
1686;DHT22;840;47.980;7.830;2023-05-10T02:31:20;14.60;99.90
1686;DHT22;840;47.980;7.830;2023-05-10T02:33:48;14.60;99.90
1686;DHT22;840;47.980;7.830;2023-05-10T02:36:16;14.60;99.90
1686;DHT22;840;47.980;7.830;2023-05-10T02:38:46;14.60;99.90
1686;DHT22;840;47.980;7.830;2023-05-10T02:41:14;14.60;99.90
1686;DHT22;840;47.980;7.830;2023-05-10T02:43:42;14.50;99.90
1686;DHT22;840;47.980;7.830;2023-05-10T02:46:09;14.50;99.90
1686;DHT22;840;47.980;7.830;2023-05-10T02:48:37;14.50;99.90
1686;DHT22;840;47.980;7.830;2023-05-10T02:51:06;14.50;99.90
1686;DHT22;840;47.980;7.830;2023-05-10T02:53:36;14.50;99.90
1686;DHT22;840;47.980;7.830;2023-05-10T02:56:12;14.50;99.90
1686;DHT22;840;47.980;7.830;2023-05-10T02:58:40;14.50;99.90
1686;DHT22;840;47.980;7.830;2023-05-10T03:01:07;14.50;99.90
1686;DHT22;840;47.980;7.830;2023-05-10T03:03:34;14.50;99.90
1686;DHT22;840;47.980;7.830;2023-05-10T03:06:01;14.50;99.90
1686;DHT22;840;47.980;7.830;2023-05-10T03:08:28;14.50;99.90
1686;DHT22;840;47.980;7.830;2023-05-10T03:11:07;14.50;99.90
1686;DHT22;840;47.980;7.830;2023-05-10T03:13:46;14.50;99.90
1686;DHT22;840;47.980;7.830;2023-05-10T03:16:18;14.50;99.90
1686;DHT22;840;47.980;7.830;2023-05-10T03:18:54;14.50;99.90
1686;DHT22;840;47.980;7.830;2023-05-10T03:21:22;14.50;99.90
1686;DHT22;840;47.980;7.830;2023-05-10T03:24:01;14.50;99.90
1686;DHT22;840;47.980;7.830;2023-05-10T03:26:34;14.40;99.90
1686;DHT22;840;47.980;7.830;2023-05-10T03:29:01;14.50;99.90
1686;DHT22;840;47.980;7.830;2023-05-10T03:31:28;14.40;99.90
1686;DHT22;840;47.980;7.830;2023-05-10T03:33:55;14.50;99.90
1686;DHT22;840;47.980;7.830;2023-05-10T03:36:22;14.50;99.90
1686;DHT22;840;47.980;7.830;2023-05-10T03:38:49;14.40;99.90
1686;DHT22;840;47.980;7.830;2023-05-10T03:41:16;14.40;99.90
1686;DHT22;840;47.980;7.830;2023-05-10T03:43:44;14.40;99.90
1686;DHT22;840;47.980;7.830;2023-05-10T03:46:11;14.40;99.90
1686;DHT22;840;47.980;7.830;2023-05-10T03:48:38;14.50;99.90
1686;DHT22;840;47.980;7.830;2023-05-10T03:51:05;14.50;99.90
1686;DHT22;840;47.980;7.830;2023-05-10T03:53:32;14.50;99.90
1686;DHT22;840;47.980;7.830;2023-05-10T03:55:59;14.50;99.90
1686;DHT22;840;47.980;7.830;2023-05-10T03:58:26;14.50;99.90
1686;DHT22;840;47.980;7.830;2023-05-10T04:00:54;14.50;99.90
1686;DHT22;840;47.980;7.830;2023-05-10T04:03:21;14.50;99.90
1686;DHT22;840;47.980;7.830;2023-05-10T04:05:48;14.50;99.90
1686;DHT22;840;47.980;7.830;2023-05-10T04:08:15;14.50;99.90
1686;DHT22;840;47.980;7.830;2023-05-10T04:10:42;14.50;99.90
1686;DHT22;840;47.980;7.830;2023-05-10T04:13:09;14.50;99.90
1686;DHT22;840;47.980;7.830;2023-05-10T04:15:36;14.50;99.90
1686;DHT22;840;47.980;7.830;2023-05-10T04:18:05;14.50;99.90
1686;DHT22;840;47.980;7.830;2023-05-10T04:20:32;14.50;99.90
1686;DHT22;840;47.980;7.830;2023-05-10T04:22:59;14.40;99.90
1686;DHT22;840;47.980;7.830;2023-05-10T04:25:26;14.40;99.90
1686;DHT22;840;47.980;7.830;2023-05-10T04:27:53;14.40;99.90
1686;DHT22;840;47.980;7.830;2023-05-10T04:30:20;14.40;99.90
1686;DHT22;840;47.980;7.830;2023-05-10T04:32:47;14.40;99.90
1686;DHT22;840;47.980;7.830;2023-05-10T04:35:16;14.40;99.90
1686;DHT22;840;47.980;7.830;2023-05-10T04:37:43;14.40;99.90
1686;DHT22;840;47.980;7.830;2023-05-10T04:40:11;14.30;99.90
1686;DHT22;840;47.980;7.830;2023-05-10T04:42:39;14.30;99.90
1686;DHT22;840;47.980;7.830;2023-05-10T04:45:07;14.30;99.90
1686;DHT22;840;47.980;7.830;2023-05-10T04:47:34;14.30;99.90
1686;DHT22;840;47.980;7.830;2023-05-10T04:50:02;14.20;99.90
1686;DHT22;840;47.980;7.830;2023-05-10T04:52:30;14.20;99.90
1686;DHT22;840;47.980;7.830;2023-05-10T04:54:58;14.20;99.90
1686;DHT22;840;47.980;7.830;2023-05-10T04:57:24;14.20;99.90
1686;DHT22;840;47.980;7.830;2023-05-10T04:59:51;14.20;99.90
1686;DHT22;840;47.980;7.830;2023-05-10T05:02:18;14.20;99.90
1686;DHT22;840;47.980;7.830;2023-05-10T05:04:45;14.20;99.90
1686;DHT22;840;47.980;7.830;2023-05-10T05:07:12;14.20;99.90
1686;DHT22;840;47.980;7.830;2023-05-10T05:09:40;14.30;99.90
1686;DHT22;840;47.980;7.830;2023-05-10T05:12:07;14.30;99.90
1686;DHT22;840;47.980;7.830;2023-05-10T05:14:39;14.30;99.90
1686;DHT22;840;47.980;7.830;2023-05-10T05:17:06;14.30;99.90
1686;DHT22;840;47.980;7.830;2023-05-10T05:19:33;14.30;99.90
1686;DHT22;840;47.980;7.830;2023-05-10T05:22:01;14.30;99.90
1686;DHT22;840;47.980;7.830;2023-05-10T05:24:28;14.30;99.90
1686;DHT22;840;47.980;7.830;2023-05-10T05:26:56;14.30;99.90
1686;DHT22;840;47.980;7.830;2023-05-10T05:29:23;14.30;99.90
1686;DHT22;840;47.980;7.830;2023-05-10T05:31:49;14.30;99.90
1686;DHT22;840;47.980;7.830;2023-05-10T05:34:16;14.30;99.90
1686;DHT22;840;47.980;7.830;2023-05-10T05:36:43;14.30;99.90
1686;DHT22;840;47.980;7.830;2023-05-10T05:39:10;14.30;99.90
1686;DHT22;840;47.980;7.830;2023-05-10T05:41:37;14.30;99.90
1686;DHT22;840;47.980;7.830;2023-05-10T05:44:08;14.30;99.90
1686;DHT22;840;47.980;7.830;2023-05-10T05:46:35;14.40;99.90
1686;DHT22;840;47.980;7.830;2023-05-10T05:49:02;14.30;99.90
1686;DHT22;840;47.980;7.830;2023-05-10T05:51:29;14.30;99.90
1686;DHT22;840;47.980;7.830;2023-05-10T05:53:56;14.30;99.90
1686;DHT22;840;47.980;7.830;2023-05-10T05:56:23;14.30;99.90
1686;DHT22;840;47.980;7.830;2023-05-10T05:58:50;14.20;99.90
1686;DHT22;840;47.980;7.830;2023-05-10T06:01:19;14.20;99.90
1686;DHT22;840;47.980;7.830;2023-05-10T06:03:46;14.20;99.90
1686;DHT22;840;47.980;7.830;2023-05-10T06:06:13;14.10;99.90
1686;DHT22;840;47.980;7.830;2023-05-10T06:08:40;14.10;99.90
1686;DHT22;840;47.980;7.830;2023-05-10T06:11:07;14.00;99.90
1686;DHT22;840;47.980;7.830;2023-05-10T06:13:34;14.00;99.90
1686;DHT22;840;47.980;7.830;2023-05-10T06:16:02;14.00;99.90
1686;DHT22;840;47.980;7.830;2023-05-10T06:18:31;14.00;99.90
1686;DHT22;840;47.980;7.830;2023-05-10T06:20:58;14.00;99.90
1686;DHT22;840;47.980;7.830;2023-05-10T06:23:25;14.00;99.90
1686;DHT22;840;47.980;7.830;2023-05-10T06:25:52;14.00;99.90
1686;DHT22;840;47.980;7.830;2023-05-10T06:28:18;13.90;99.90
1686;DHT22;840;47.980;7.830;2023-05-10T06:30:45;13.90;99.90
1686;DHT22;840;47.980;7.830;2023-05-10T06:33:13;13.90;99.90
1686;DHT22;840;47.980;7.830;2023-05-10T06:35:42;14.00;99.90
1686;DHT22;840;47.980;7.830;2023-05-10T06:38:09;14.00;99.90
1686;DHT22;840;47.980;7.830;2023-05-10T06:40:36;14.00;99.90
1686;DHT22;840;47.980;7.830;2023-05-10T06:43:03;14.10;99.90
1686;DHT22;840;47.980;7.830;2023-05-10T06:45:31;14.10;99.90
1686;DHT22;840;47.980;7.830;2023-05-10T06:47:57;14.10;99.90
1686;DHT22;840;47.980;7.830;2023-05-10T06:50:25;14.20;99.90
1686;DHT22;840;47.980;7.830;2023-05-10T06:52:53;14.20;99.90
1686;DHT22;840;47.980;7.830;2023-05-10T06:55:20;14.20;99.90
1686;DHT22;840;47.980;7.830;2023-05-10T06:57:48;14.30;99.90
1686;DHT22;840;47.980;7.830;2023-05-10T07:00:16;14.20;99.90
1686;DHT22;840;47.980;7.830;2023-05-10T07:02:43;14.30;99.90
1686;DHT22;840;47.980;7.830;2023-05-10T07:05:10;14.30;99.90
1686;DHT22;840;47.980;7.830;2023-05-10T07:07:37;14.40;99.90
1686;DHT22;840;47.980;7.830;2023-05-10T07:10:07;14.40;99.90
1686;DHT22;840;47.980;7.830;2023-05-10T07:12:34;14.40;99.90
1686;DHT22;840;47.980;7.830;2023-05-10T07:15:01;14.40;99.90
1686;DHT22;840;47.980;7.830;2023-05-10T07:17:28;14.50;99.90
1686;DHT22;840;47.980;7.830;2023-05-10T07:19:55;14.60;99.90
1686;DHT22;840;47.980;7.830;2023-05-10T07:22:22;14.70;99.90
1686;DHT22;840;47.980;7.830;2023-05-10T07:24:48;14.70;99.90
1686;DHT22;840;47.980;7.830;2023-05-10T07:27:17;14.80;99.90
1686;DHT22;840;47.980;7.830;2023-05-10T07:29:44;14.80;99.90
1686;DHT22;840;47.980;7.830;2023-05-10T07:32:10;14.80;99.90
1686;DHT22;840;47.980;7.830;2023-05-10T07:34:40;14.80;99.90
1686;DHT22;840;47.980;7.830;2023-05-10T07:37:07;14.80;99.90
1686;DHT22;840;47.980;7.830;2023-05-10T07:39:33;14.90;99.90
1686;DHT22;840;47.980;7.830;2023-05-10T07:42:00;14.90;99.90
1686;DHT22;840;47.980;7.830;2023-05-10T07:44:29;14.90;99.90
1686;DHT22;840;47.980;7.830;2023-05-10T07:46:56;15.00;99.90
1686;DHT22;840;47.980;7.830;2023-05-10T07:49:23;15.10;99.90
1686;DHT22;840;47.980;7.830;2023-05-10T07:51:50;15.10;99.90
1686;DHT22;840;47.980;7.830;2023-05-10T07:54:17;15.20;99.90
1686;DHT22;840;47.980;7.830;2023-05-10T07:56:44;15.30;99.90
1686;DHT22;840;47.980;7.830;2023-05-10T07:59:15;15.30;99.90
1686;DHT22;840;47.980;7.830;2023-05-10T08:01:44;15.40;99.90
1686;DHT22;840;47.980;7.830;2023-05-10T08:04:11;15.40;99.90
1686;DHT22;840;47.980;7.830;2023-05-10T08:06:38;15.50;99.90
1686;DHT22;840;47.980;7.830;2023-05-10T08:09:05;15.60;99.90
1686;DHT22;840;47.980;7.830;2023-05-10T08:11:31;15.60;99.90
1686;DHT22;840;47.980;7.830;2023-05-10T08:14:12;15.70;99.90
1686;DHT22;840;47.980;7.830;2023-05-10T08:16:39;15.80;99.90
1686;DHT22;840;47.980;7.830;2023-05-10T08:19:07;16.00;99.90
1686;DHT22;840;47.980;7.830;2023-05-10T08:21:34;16.00;99.90
1686;DHT22;840;47.980;7.830;2023-05-10T08:24:02;16.20;99.90
1686;DHT22;840;47.980;7.830;2023-05-10T08:26:30;16.40;99.90
1686;DHT22;840;47.980;7.830;2023-05-10T08:28:59;16.40;99.90
1686;DHT22;840;47.980;7.830;2023-05-10T08:31:25;16.50;99.90
1686;DHT22;840;47.980;7.830;2023-05-10T08:33:52;16.50;99.90
1686;DHT22;840;47.980;7.830;2023-05-10T08:36:21;16.50;99.90
1686;DHT22;840;47.980;7.830;2023-05-10T08:38:50;16.40;99.90
1686;DHT22;840;47.980;7.830;2023-05-10T08:41:19;16.40;99.90
1686;DHT22;840;47.980;7.830;2023-05-10T08:43:46;16.30;99.90
1686;DHT22;840;47.980;7.830;2023-05-10T08:46:15;16.30;99.90
1686;DHT22;840;47.980;7.830;2023-05-10T08:48:43;16.30;99.90
1686;DHT22;840;47.980;7.830;2023-05-10T08:51:12;16.30;99.90
1686;DHT22;840;47.980;7.830;2023-05-10T08:53:41;16.30;99.90
1686;DHT22;840;47.980;7.830;2023-05-10T08:56:08;16.30;99.90
1686;DHT22;840;47.980;7.830;2023-05-10T08:58:35;16.30;99.90
1686;DHT22;840;47.980;7.830;2023-05-10T09:01:03;16.40;99.90
1686;DHT22;840;47.980;7.830;2023-05-10T09:03:30;16.50;99.90
1686;DHT22;840;47.980;7.830;2023-05-10T09:05:57;16.60;99.90
1686;DHT22;840;47.980;7.830;2023-05-10T09:08:25;16.80;99.90
1686;DHT22;840;47.980;7.830;2023-05-10T09:10:54;16.90;99.90
1686;DHT22;840;47.980;7.830;2023-05-10T09:13:23;17.10;99.90
1686;DHT22;840;47.980;7.830;2023-05-10T09:15:50;17.10;99.90
1686;DHT22;840;47.980;7.830;2023-05-10T09:18:17;17.20;99.90
1686;DHT22;840;47.980;7.830;2023-05-10T09:20:44;17.20;99.90
1686;DHT22;840;47.980;7.830;2023-05-10T09:23:11;17.20;99.90
1686;DHT22;840;47.980;7.830;2023-05-10T09:25:38;17.20;99.90
1686;DHT22;840;47.980;7.830;2023-05-10T09:28:08;17.30;99.90
1686;DHT22;840;47.980;7.830;2023-05-10T09:30:35;17.30;99.90
1686;DHT22;840;47.980;7.830;2023-05-10T09:33:02;17.40;99.90
1686;DHT22;840;47.980;7.830;2023-05-10T09:35:31;17.40;99.90
1686;DHT22;840;47.980;7.830;2023-05-10T09:38:02;17.40;99.90
1686;DHT22;840;47.980;7.830;2023-05-10T09:40:30;17.40;99.90
1686;DHT22;840;47.980;7.830;2023-05-10T09:42:58;17.40;99.90
1686;DHT22;840;47.980;7.830;2023-05-10T09:45:28;17.40;99.90
1686;DHT22;840;47.980;7.830;2023-05-10T09:47:56;17.40;99.90
1686;DHT22;840;47.980;7.830;2023-05-10T09:50:24;17.40;99.90
1686;DHT22;840;47.980;7.830;2023-05-10T09:52:52;17.40;99.90
1686;DHT22;840;47.980;7.830;2023-05-10T09:55:21;17.50;99.90
1686;DHT22;840;47.980;7.830;2023-05-10T09:57:48;17.60;99.90
1686;DHT22;840;47.980;7.830;2023-05-10T10:00:18;17.60;99.90
1686;DHT22;840;47.980;7.830;2023-05-10T10:02:47;17.70;99.90
1686;DHT22;840;47.980;7.830;2023-05-10T10:05:14;17.70;99.90
1686;DHT22;840;47.980;7.830;2023-05-10T10:07:41;17.60;99.90
1686;DHT22;840;47.980;7.830;2023-05-10T10:10:09;17.60;99.90
1686;DHT22;840;47.980;7.830;2023-05-10T10:12:38;17.60;99.90
1686;DHT22;840;47.980;7.830;2023-05-10T10:15:07;17.60;99.90
1686;DHT22;840;47.980;7.830;2023-05-10T10:17:35;17.60;99.90
1686;DHT22;840;47.980;7.830;2023-05-10T10:20:06;17.60;99.90
1686;DHT22;840;47.980;7.830;2023-05-10T10:22:33;17.80;99.90
1686;DHT22;840;47.980;7.830;2023-05-10T10:25:00;17.70;99.90
1686;DHT22;840;47.980;7.830;2023-05-10T10:27:34;17.80;99.90
1686;DHT22;840;47.980;7.830;2023-05-10T10:30:10;17.70;99.90
1686;DHT22;840;47.980;7.830;2023-05-10T10:32:51;17.60;99.90
1686;DHT22;840;47.980;7.830;2023-05-10T10:35:23;17.60;99.90
1686;DHT22;840;47.980;7.830;2023-05-10T10:37:50;17.60;99.90
1686;DHT22;840;47.980;7.830;2023-05-10T10:40:24;17.70;99.90
1686;DHT22;840;47.980;7.830;2023-05-10T10:42:52;17.70;99.90
1686;DHT22;840;47.980;7.830;2023-05-10T10:45:20;17.60;99.90
1686;DHT22;840;47.980;7.830;2023-05-10T10:47:47;17.60;99.90
1686;DHT22;840;47.980;7.830;2023-05-10T10:50:15;17.50;99.90
1686;DHT22;840;47.980;7.830;2023-05-10T10:52:45;17.60;99.90
1686;DHT22;840;47.980;7.830;2023-05-10T10:55:16;17.60;99.90
1686;DHT22;840;47.980;7.830;2023-05-10T10:57:48;17.60;99.90
1686;DHT22;840;47.980;7.830;2023-05-10T11:00:24;17.70;99.90
1686;DHT22;840;47.980;7.830;2023-05-10T11:02:53;17.90;99.90
1686;DHT22;840;47.980;7.830;2023-05-10T11:05:41;18.10;99.90
1686;DHT22;840;47.980;7.830;2023-05-10T11:08:15;18.20;99.90
1686;DHT22;840;47.980;7.830;2023-05-10T11:11:03;18.30;99.90
1686;DHT22;840;47.980;7.830;2023-05-10T11:13:34;18.40;99.90
1686;DHT22;840;47.980;7.830;2023-05-10T11:16:12;18.40;99.90
1686;DHT22;840;47.980;7.830;2023-05-10T11:18:40;18.30;99.90
1686;DHT22;840;47.980;7.830;2023-05-10T11:21:09;18.30;99.90
1686;DHT22;840;47.980;7.830;2023-05-10T11:23:49;18.40;99.90
1686;DHT22;840;47.980;7.830;2023-05-10T11:26:17;18.40;99.90
1686;DHT22;840;47.980;7.830;2023-05-10T11:28:45;18.50;99.90
1686;DHT22;840;47.980;7.830;2023-05-10T11:31:13;18.40;99.90
1686;DHT22;840;47.980;7.830;2023-05-10T11:33:44;18.20;99.90
1686;DHT22;840;47.980;7.830;2023-05-10T11:36:12;17.90;99.90
1686;DHT22;840;47.980;7.830;2023-05-10T11:38:38;17.80;99.90
1686;DHT22;840;47.980;7.830;2023-05-10T11:41:08;17.70;99.90
1686;DHT22;840;47.980;7.830;2023-05-10T11:43:35;17.70;99.90
1686;DHT22;840;47.980;7.830;2023-05-10T11:46:04;17.70;99.90
1686;DHT22;840;47.980;7.830;2023-05-10T11:48:31;17.80;99.90
1686;DHT22;840;47.980;7.830;2023-05-10T11:51:00;17.90;99.90
1686;DHT22;840;47.980;7.830;2023-05-10T11:53:27;17.80;99.90
1686;DHT22;840;47.980;7.830;2023-05-10T11:55:54;17.90;99.90
1686;DHT22;840;47.980;7.830;2023-05-10T11:58:25;17.90;99.90
1686;DHT22;840;47.980;7.830;2023-05-10T12:00:51;17.90;99.90
1686;DHT22;840;47.980;7.830;2023-05-10T12:03:19;17.90;99.90
1686;DHT22;840;47.980;7.830;2023-05-10T12:05:46;17.90;99.90
1686;DHT22;840;47.980;7.830;2023-05-10T12:08:13;18.10;99.90
1686;DHT22;840;47.980;7.830;2023-05-10T12:10:41;18.10;99.90
1686;DHT22;840;47.980;7.830;2023-05-10T12:13:11;18.10;99.90
1686;DHT22;840;47.980;7.830;2023-05-10T12:15:41;18.10;99.90
1686;DHT22;840;47.980;7.830;2023-05-10T12:18:09;18.10;99.90
1686;DHT22;840;47.980;7.830;2023-05-10T12:20:37;18.10;99.90
1686;DHT22;840;47.980;7.830;2023-05-10T12:23:04;18.00;99.90
1686;DHT22;840;47.980;7.830;2023-05-10T12:25:32;17.90;99.90
1686;DHT22;840;47.980;7.830;2023-05-10T12:28:03;17.80;99.90
1686;DHT22;840;47.980;7.830;2023-05-10T12:30:31;17.80;99.90
1686;DHT22;840;47.980;7.830;2023-05-10T12:33:01;17.70;99.90
1686;DHT22;840;47.980;7.830;2023-05-10T12:35:30;17.60;99.90
1686;DHT22;840;47.980;7.830;2023-05-10T12:37:58;17.60;99.90
1686;DHT22;840;47.980;7.830;2023-05-10T12:40:25;17.30;99.90
1686;DHT22;840;47.980;7.830;2023-05-10T12:42:52;17.10;99.90
1686;DHT22;840;47.980;7.830;2023-05-10T12:45:19;16.80;99.90
1686;DHT22;840;47.980;7.830;2023-05-10T12:47:46;16.60;99.90
1686;DHT22;840;47.980;7.830;2023-05-10T12:50:14;16.50;99.90
1686;DHT22;840;47.980;7.830;2023-05-10T12:52:41;16.40;99.90
1686;DHT22;840;47.980;7.830;2023-05-10T12:55:08;16.40;99.90
1686;DHT22;840;47.980;7.830;2023-05-10T12:57:35;16.60;99.90
1686;DHT22;840;47.980;7.830;2023-05-10T13:00:02;16.90;99.90
1686;DHT22;840;47.980;7.830;2023-05-10T13:02:30;16.90;99.90
1686;DHT22;840;47.980;7.830;2023-05-10T13:04:57;17.00;99.90
1686;DHT22;840;47.980;7.830;2023-05-10T13:07:25;17.10;99.90
1686;DHT22;840;47.980;7.830;2023-05-10T13:09:52;17.20;99.90
1686;DHT22;840;47.980;7.830;2023-05-10T13:12:19;17.30;99.90
1686;DHT22;840;47.980;7.830;2023-05-10T13:14:45;17.30;99.90
1686;DHT22;840;47.980;7.830;2023-05-10T13:17:12;17.30;99.90
1686;DHT22;840;47.980;7.830;2023-05-10T13:19:39;17.50;99.90
1686;DHT22;840;47.980;7.830;2023-05-10T13:22:06;17.60;99.90
1686;DHT22;840;47.980;7.830;2023-05-10T13:24:34;17.70;99.90
1686;DHT22;840;47.980;7.830;2023-05-10T13:27:01;17.80;99.90
1686;DHT22;840;47.980;7.830;2023-05-10T13:29:30;17.80;99.90
1686;DHT22;840;47.980;7.830;2023-05-10T13:31:58;17.90;99.90
1686;DHT22;840;47.980;7.830;2023-05-10T13:34:25;18.00;99.90
1686;DHT22;840;47.980;7.830;2023-05-10T13:36:52;18.10;99.90
1686;DHT22;840;47.980;7.830;2023-05-10T13:39:21;18.20;99.90
1686;DHT22;840;47.980;7.830;2023-05-10T13:41:49;18.20;99.90
1686;DHT22;840;47.980;7.830;2023-05-10T13:44:16;18.10;99.90
1686;DHT22;840;47.980;7.830;2023-05-10T13:46:43;18.10;99.90
1686;DHT22;840;47.980;7.830;2023-05-10T13:49:10;18.20;99.90
1686;DHT22;840;47.980;7.830;2023-05-10T13:51:37;18.30;99.90
1686;DHT22;840;47.980;7.830;2023-05-10T13:54:04;18.30;99.90
1686;DHT22;840;47.980;7.830;2023-05-10T13:56:31;18.20;99.90
1686;DHT22;840;47.980;7.830;2023-05-10T13:58:59;18.20;99.90
1686;DHT22;840;47.980;7.830;2023-05-10T14:01:27;18.20;99.90
1686;DHT22;840;47.980;7.830;2023-05-10T14:03:54;18.30;99.90
1686;DHT22;840;47.980;7.830;2023-05-10T14:06:20;18.40;99.90
1686;DHT22;840;47.980;7.830;2023-05-10T14:08:47;18.50;99.90
1686;DHT22;840;47.980;7.830;2023-05-10T14:11:14;18.70;99.90
1686;DHT22;840;47.980;7.830;2023-05-10T14:13:41;18.90;99.90
1686;DHT22;840;47.980;7.830;2023-05-10T14:16:09;19.10;99.90
1686;DHT22;840;47.980;7.830;2023-05-10T14:18:37;19.30;99.90
1686;DHT22;840;47.980;7.830;2023-05-10T14:21:04;19.60;99.90
1686;DHT22;840;47.980;7.830;2023-05-10T14:23:30;19.80;99.90
1686;DHT22;840;47.980;7.830;2023-05-10T14:25:57;19.90;99.90
1686;DHT22;840;47.980;7.830;2023-05-10T14:28:24;19.90;99.90
1686;DHT22;840;47.980;7.830;2023-05-10T14:30:51;19.90;99.90
1686;DHT22;840;47.980;7.830;2023-05-10T14:33:19;19.80;99.90
1686;DHT22;840;47.980;7.830;2023-05-10T14:35:46;19.80;99.90
1686;DHT22;840;47.980;7.830;2023-05-10T14:38:13;19.60;99.90
1686;DHT22;840;47.980;7.830;2023-05-10T14:40:41;19.50;99.90
1686;DHT22;840;47.980;7.830;2023-05-10T14:43:08;19.30;99.90
1686;DHT22;840;47.980;7.830;2023-05-10T14:45:35;19.20;99.90
1686;DHT22;840;47.980;7.830;2023-05-10T14:48:01;19.00;99.90
1686;DHT22;840;47.980;7.830;2023-05-10T14:50:31;18.90;99.90
1686;DHT22;840;47.980;7.830;2023-05-10T14:52:58;18.90;99.90
1686;DHT22;840;47.980;7.830;2023-05-10T14:55:24;19.00;99.90
1686;DHT22;840;47.980;7.830;2023-05-10T14:57:51;19.00;99.90
1686;DHT22;840;47.980;7.830;2023-05-10T15:00:18;19.10;99.90
1686;DHT22;840;47.980;7.830;2023-05-10T15:02:46;19.20;99.90
1686;DHT22;840;47.980;7.830;2023-05-10T15:05:13;19.40;99.90
1686;DHT22;840;47.980;7.830;2023-05-10T15:07:43;19.60;99.90
1686;DHT22;840;47.980;7.830;2023-05-10T15:10:10;19.80;99.90
1686;DHT22;840;47.980;7.830;2023-05-10T15:12:37;19.90;99.90
1686;DHT22;840;47.980;7.830;2023-05-10T15:15:05;19.90;99.90
1686;DHT22;840;47.980;7.830;2023-05-10T15:17:32;19.90;99.90
1686;DHT22;840;47.980;7.830;2023-05-10T15:19:59;19.80;99.90
1686;DHT22;840;47.980;7.830;2023-05-10T15:22:27;19.80;99.90
1686;DHT22;840;47.980;7.830;2023-05-10T15:24:55;19.60;99.90
1686;DHT22;840;47.980;7.830;2023-05-10T15:27:22;19.60;99.90
1686;DHT22;840;47.980;7.830;2023-05-10T15:29:49;19.50;99.90
1686;DHT22;840;47.980;7.830;2023-05-10T15:32:15;19.60;99.90
1686;DHT22;840;47.980;7.830;2023-05-10T15:34:42;19.90;99.90
1686;DHT22;840;47.980;7.830;2023-05-10T15:37:09;20.20;99.90
1686;DHT22;840;47.980;7.830;2023-05-10T15:39:36;20.70;99.90
1686;DHT22;840;47.980;7.830;2023-05-10T15:42:04;21.00;99.90
1686;DHT22;840;47.980;7.830;2023-05-10T15:44:31;21.20;99.90
1686;DHT22;840;47.980;7.830;2023-05-10T15:47:00;21.40;99.90
1686;DHT22;840;47.980;7.830;2023-05-10T15:49:27;21.50;99.90
1686;DHT22;840;47.980;7.830;2023-05-10T15:51:54;21.40;99.90
1686;DHT22;840;47.980;7.830;2023-05-10T15:54:21;21.30;99.90
1686;DHT22;840;47.980;7.830;2023-05-10T15:56:48;21.00;99.90
1686;DHT22;840;47.980;7.830;2023-05-10T15:59:16;20.70;99.90
1686;DHT22;840;47.980;7.830;2023-05-10T16:01:43;20.40;99.90
1686;DHT22;840;47.980;7.830;2023-05-10T16:04:10;20.30;99.90
1686;DHT22;840;47.980;7.830;2023-05-10T16:06:39;20.50;99.90
1686;DHT22;840;47.980;7.830;2023-05-10T16:09:07;20.80;99.90
1686;DHT22;840;47.980;7.830;2023-05-10T16:11:34;21.00;99.90
1686;DHT22;840;47.980;7.830;2023-05-10T16:14:01;21.20;99.90
1686;DHT22;840;47.980;7.830;2023-05-10T16:16:30;21.30;99.90
1686;DHT22;840;47.980;7.830;2023-05-10T16:19:00;21.10;99.90
1686;DHT22;840;47.980;7.830;2023-05-10T16:21:29;20.90;99.90
1686;DHT22;840;47.980;7.830;2023-05-10T16:23:56;20.50;99.90
1686;DHT22;840;47.980;7.830;2023-05-10T16:26:23;20.10;99.90